Time;durP1;ratioP1;P1;durP2;ratioP2;P2;SDS_P1;SDS_P2;PMS_P1;PMS_P2;Temp;Humidity;BMP_temperature;BMP_pressure;BME280_temperature;BME280_humidity;BME280_pressure;Samples;Min_cycle;Max_cycle;Signal;HPM_P1;HPM_P2
2021/10/10 00:02:09;;;;;;;26.45;22.90;;;6.70;99.90;;;;;;5050699;28;20048;-72
2021/10/10 00:04:35;;;;;;;25.77;23.00;;;6.70;99.90;;;;;;5050333;28;20032;-72
2021/10/10 00:07:04;;;;;;;31.70;27.25;;;6.60;99.90;;;;;;5034044;28;20060;-72
2021/10/10 00:09:30;;;;;;;27.05;23.20;;;6.60;99.90;;;;;;5049573;28;20043;-72
2021/10/10 00:11:56;;;;;;;28.95;24.60;;;6.70;99.90;;;;;;5050082;28;20411;-72
2021/10/10 00:14:22;;;;;;;24.38;21.52;;;6.60;99.90;;;;;;5050226;28;20057;-72
2021/10/10 00:16:48;;;;;;;23.48;19.00;;;6.60;99.90;;;;;;5050571;28;20052;-72
2021/10/10 00:19:14;;;;;;;20.05;17.95;;;6.60;99.90;;;;;;5033481;28;20052;-72
2021/10/10 00:21:39;;;;;;;21.65;19.35;;;6.50;99.90;;;;;;5033343;28;20036;-72
2021/10/10 00:24:08;;;;;;;26.60;22.70;;;6.50;99.90;;;;;;5031248;28;20539;-72
2021/10/10 00:26:34;;;;;;;23.83;21.30;;;6.50;99.90;;;;;;5030631;28;20044;-72
2021/10/10 00:29:00;;;;;;;26.00;21.77;;;6.40;99.90;;;;;;5034272;28;20051;-72
2021/10/10 00:31:26;;;;;;;26.33;22.08;;;6.40;99.90;;;;;;5049301;28;20905;-72
2021/10/10 00:33:51;;;;;;;25.13;21.67;;;6.30;99.90;;;;;;5031198;28;20149;-72
2021/10/10 00:36:17;;;;;;;24.13;20.77;;;6.30;99.90;;;;;;5033698;28;20436;-72
2021/10/10 00:38:43;;;;;;;29.00;24.35;;;6.30;99.90;;;;;;5050140;28;20094;-72
2021/10/10 00:41:09;;;;;;;23.38;20.77;;;6.30;99.90;;;;;;5031831;28;20048;-72
2021/10/10 00:43:35;;;;;;;23.70;20.58;;;6.20;99.90;;;;;;5050521;28;20384;-72
2021/10/10 00:46:01;;;;;;;27.83;23.98;;;6.30;99.90;;;;;;5047853;28;20103;-73
2021/10/10 00:48:29;;;;;;;24.38;21.80;;;6.30;99.90;;;;;;5030635;28;20094;-72
2021/10/10 00:50:55;;;;;;;32.10;26.35;;;6.30;99.90;;;;;;5050491;28;20431;-72
2021/10/10 00:53:23;;;;;;;29.90;23.88;;;6.30;99.90;;;;;;5031969;28;20391;-72
2021/10/10 00:55:52;;;;;;;28.23;24.40;;;6.30;99.90;;;;;;5032283;28;20538;-72
2021/10/10 00:58:26;;;;;;;23.77;21.08;;;6.20;99.90;;;;;;5049446;28;20043;-72
2021/10/10 01:00:54;;;;;;;30.75;26.60;;;6.20;99.90;;;;;;5033616;28;20063;-72
2021/10/10 01:03:20;;;;;;;30.02;24.23;;;6.20;99.90;;;;;;5049125;28;20033;-72
2021/10/10 01:05:47;;;;;;;25.85;22.98;;;6.20;99.90;;;;;;5049549;28;20124;-72
2021/10/10 01:08:13;;;;;;;25.08;22.13;;;6.20;99.90;;;;;;5032193;28;20143;-72
2021/10/10 01:10:40;;;;;;;27.50;22.85;;;6.20;99.90;;;;;;5048536;28;20098;-72
2021/10/10 01:13:07;;;;;;;24.75;21.98;;;6.20;99.90;;;;;;5031424;28;20171;-72
2021/10/10 01:15:33;;;;;;;25.20;21.17;;;6.10;99.90;;;;;;5030335;28;20045;-72
2021/10/10 01:17:59;;;;;;;28.52;24.50;;;6.20;99.90;;;;;;5031033;28;20075;-72
2021/10/10 01:20:27;;;;;;;28.88;24.98;;;6.10;99.90;;;;;;5048268;28;20471;-72
2021/10/10 01:22:53;;;;;;;25.92;22.55;;;6.10;99.90;;;;;;5032410;28;20434;-72
2021/10/10 01:25:20;;;;;;;23.13;20.67;;;6.10;99.90;;;;;;5048116;28;20048;-72
2021/10/10 01:27:45;;;;;;;24.70;20.63;;;6.10;99.90;;;;;;5030691;28;20037;-72
2021/10/10 01:30:11;;;;;;;24.27;20.65;;;6.20;99.90;;;;;;5032456;28;20043;-72
2021/10/10 01:32:37;;;;;;;27.80;23.52;;;6.10;99.90;;;;;;5048525;28;20046;-72
2021/10/10 01:35:04;;;;;;;29.35;23.25;;;6.10;99.90;;;;;;5032585;28;20139;-72
2021/10/10 01:37:29;;;;;;;24.73;21.83;;;6.00;99.90;;;;;;5032175;28;20040;-72
2021/10/10 01:39:55;;;;;;;24.85;22.10;;;6.00;99.90;;;;;;5048626;28;20047;-72
2021/10/10 01:42:21;;;;;;;23.73;20.80;;;6.00;99.90;;;;;;5046747;28;20106;-72
2021/10/10 01:44:47;;;;;;;24.50;21.65;;;6.00;99.90;;;;;;5048391;28;20036;-72
2021/10/10 01:47:13;;;;;;;26.42;23.65;;;6.00;99.90;;;;;;5047871;28;20503;-75
2021/10/10 01:49:39;;;;;;;26.23;22.23;;;5.90;99.90;;;;;;5031905;28;20119;-76
2021/10/10 01:52:06;;;;;;;25.83;22.83;;;5.90;99.90;;;;;;5048531;28;20380;-76
2021/10/10 01:54:34;;;;;;;29.73;24.17;;;5.80;99.90;;;;;;5045346;28;20083;-76
2021/10/10 01:57:04;;;;;;;25.85;22.98;;;5.80;99.90;;;;;;5049226;28;20071;-76
2021/10/10 01:59:30;;;;;;;27.92;23.25;;;5.90;99.90;;;;;;5048044;28;20075;-76
2021/10/10 02:01:55;;;;;;;21.40;18.65;;;5.90;99.90;;;;;;5047490;28;20076;-72
2021/10/10 02:04:21;;;;;;;21.77;18.10;;;5.90;99.90;;;;;;5033005;28;20786;-72
2021/10/10 02:06:47;;;;;;;20.15;18.00;;;5.80;99.90;;;;;;5049266;28;20049;-72
2021/10/10 02:09:13;;;;;;;24.17;19.67;;;5.70;99.90;;;;;;5033696;28;20040;-72
2021/10/10 02:11:38;;;;;;;22.30;18.98;;;5.70;99.90;;;;;;5032517;28;20041;-72
2021/10/10 02:14:04;;;;;;;19.88;17.77;;;5.60;99.90;;;;;;5050060;28;20044;-72
2021/10/10 02:16:30;;;;;;;18.95;16.95;;;5.60;99.90;;;;;;5049785;28;20491;-72
2021/10/10 02:18:56;;;;;;;22.00;19.58;;;5.60;99.90;;;;;;5047723;28;20495;-72
2021/10/10 02:21:21;;;;;;;21.00;18.17;;;5.60;99.90;;;;;;5033342;28;20076;-72
2021/10/10 02:23:47;;;;;;;24.80;19.80;;;5.60;99.90;;;;;;5033555;28;20079;-72
2021/10/10 02:26:13;;;;;;;26.20;21.50;;;5.50;99.90;;;;;;5050899;28;20045;-72
2021/10/10 02:28:39;;;;;;;30.17;25.73;;;5.50;99.90;;;;;;5049946;28;20048;-72
2021/10/10 02:31:04;;;;;;;27.23;24.23;;;5.50;99.90;;;;;;5050162;28;20044;-72
2021/10/10 02:33:30;;;;;;;26.70;23.20;;;5.50;99.90;;;;;;5033683;28;20043;-72
2021/10/10 02:35:56;;;;;;;23.52;21.02;;;5.40;99.90;;;;;;5050509;28;20511;-72
2021/10/10 02:38:22;;;;;;;24.53;21.93;;;5.40;99.90;;;;;;5049397;28;20048;-72
2021/10/10 02:40:48;;;;;;;25.00;21.53;;;5.40;99.90;;;;;;5054865;28;20045;-72
2021/10/10 02:43:13;;;;;;;27.40;24.25;;;5.40;99.90;;;;;;5033081;28;20076;-72
2021/10/10 02:45:39;;;;;;;25.05;22.25;;;5.40;99.90;;;;;;5048940;28;20070;-72
2021/10/10 02:48:06;;;;;;;24.30;21.63;;;5.40;99.90;;;;;;5020404;28;20057;-72
2021/10/10 02:50:32;;;;;;;20.95;18.17;;;5.40;99.90;;;;;;5058773;28;20626;-72
2021/10/10 02:52:58;;;;;;;17.08;15.32;;;5.50;99.90;;;;;;5046451;28;20144;-72
2021/10/10 02:55:24;;;;;;;19.77;17.63;;;5.40;99.90;;;;;;5027476;28;20139;-72
2021/10/10 02:57:50;;;;;;;24.17;21.60;;;5.40;99.90;;;;;;5050929;28;20155;-72
2021/10/10 03:00:16;;;;;;;21.27;19.07;;;5.30;99.90;;;;;;5052319;28;20736;-72
2021/10/10 03:02:41;;;;;;;28.73;23.90;;;5.30;99.90;;;;;;5035558;28;20028;-72
2021/10/10 03:05:08;;;;;;;23.40;20.95;;;5.20;99.90;;;;;;5036781;28;20112;-72
2021/10/10 03:07:33;;;;;;;25.00;22.30;;;5.20;99.90;;;;;;5035548;28;20040;-72
2021/10/10 03:09:59;;;;;;;25.92;22.33;;;5.20;99.90;;;;;;5053181;28;20059;-72
2021/10/10 03:12:25;;;;;;;18.77;16.85;;;5.20;99.90;;;;;;5035739;28;20045;-72
2021/10/10 03:14:51;;;;;;;17.85;15.48;;;5.20;99.90;;;;;;5036349;28;20082;-72
2021/10/10 03:17:17;;;;;;;17.30;15.60;;;5.10;99.90;;;;;;5036914;28;20040;-72
2021/10/10 03:19:42;;;;;;;16.92;15.13;;;5.00;99.90;;;;;;5035842;28;20437;-72
2021/10/10 03:22:08;;;;;;;15.82;14.13;;;5.00;99.90;;;;;;5052157;28;20071;-72
2021/10/10 03:24:34;;;;;;;18.80;16.52;;;4.90;99.90;;;;;;5051359;28;20050;-72
2021/10/10 03:27:00;;;;;;;16.87;14.90;;;4.80;99.90;;;;;;5053091;28;20052;-72
2021/10/10 03:29:25;;;;;;;17.43;15.63;;;4.70;99.90;;;;;;5052372;28;20141;-72
2021/10/10 03:31:54;;;;;;;18.52;16.63;;;4.70;99.90;;;;;;5036027;28;20115;-72
2021/10/10 03:34:20;;;;;;;20.87;16.93;;;4.80;99.90;;;;;;5052787;28;20178;-72
2021/10/10 03:36:45;;;;;;;21.08;18.85;;;4.70;99.90;;;;;;5052315;28;20098;-72
2021/10/10 03:39:11;;;;;;;17.25;15.52;;;4.80;99.90;;;;;;5052226;28;20491;-72
2021/10/10 03:41:37;;;;;;;17.40;15.70;;;4.70;99.90;;;;;;5035146;28;20101;-72
2021/10/10 03:44:03;;;;;;;20.13;18.13;;;4.70;99.90;;;;;;5035549;28;20045;-72
2021/10/10 03:46:29;;;;;;;21.10;18.90;;;4.70;99.90;;;;;;5051257;28;20044;-72
2021/10/10 03:48:55;;;;;;;21.38;18.40;;;4.70;99.90;;;;;;5068786;28;20457;-72
2021/10/10 03:51:20;;;;;;;19.33;17.20;;;4.50;99.90;;;;;;5052046;28;20076;-72
2021/10/10 03:56:31;;;;;;;17.83;16.13;;;4.50;99.90;;;;;;5068727;28;20044;-72
2021/10/10 03:58:57;;;;;;;20.57;17.67;;;4.50;99.90;;;;;;5051921;28;20534;-72
2021/10/10 04:01:25;;;;;;;17.30;15.53;;;4.40;99.90;;;;;;5050020;28;20047;-72
2021/10/10 04:03:50;;;;;;;19.97;17.97;;;4.40;99.90;;;;;;5050723;28;20554;-72
2021/10/10 04:06:16;;;;;;;21.40;19.20;;;4.40;99.90;;;;;;5034702;28;20037;-72
2021/10/10 04:08:44;;;;;;;19.83;17.60;;;4.40;99.90;;;;;;5051058;28;20417;-72
2021/10/10 04:11:10;;;;;;;19.37;17.43;;;4.40;99.90;;;;;;5053151;28;20052;-72
2021/10/10 04:13:37;;;;;;;19.73;17.83;;;4.30;99.90;;;;;;5035550;28;20052;-72
2021/10/10 04:16:03;;;;;;;19.10;17.10;;;4.30;99.90;;;;;;5052841;28;20127;-72
2021/10/10 04:18:29;;;;;;;20.03;17.90;;;4.40;99.90;;;;;;5052352;28;20557;-72
2021/10/10 04:20:58;;;;;;;21.60;19.30;;;4.40;99.90;;;;;;5035673;28;20044;-72
2021/10/10 04:23:24;;;;;;;20.43;18.33;;;4.40;99.90;;;;;;5051785;28;20044;-72
2021/10/10 04:25:49;;;;;;;21.67;19.47;;;4.40;99.90;;;;;;5051363;28;20068;-72
2021/10/10 04:28:15;;;;;;;20.33;18.23;;;4.40;99.90;;;;;;5068336;28;20045;-72
2021/10/10 04:30:41;;;;;;;24.33;21.83;;;4.30;99.90;;;;;;5051049;28;20399;-72
2021/10/10 04:33:09;;;;;;;20.50;18.47;;;4.30;99.90;;;;;;5051743;28;20048;-72
2021/10/10 04:35:38;;;;;;;40.10;30.30;;;4.30;99.90;;;;;;5034736;28;20093;-72
2021/10/10 04:38:03;;;;;;;29.53;25.33;;;4.30;99.90;;;;;;5051753;28;20056;-75
2021/10/10 04:40:29;;;;;;;23.10;20.70;;;4.20;99.90;;;;;;5050941;28;20402;-75
2021/10/10 04:42:55;;;;;;;22.97;20.67;;;4.20;99.90;;;;;;5051343;28;20052;-72
2021/10/10 04:45:21;;;;;;;25.07;19.40;;;4.20;99.90;;;;;;5051520;28;20052;-72
2021/10/10 04:47:46;;;;;;;22.17;19.60;;;4.10;99.90;;;;;;5039505;28;20056;-72
2021/10/10 04:50:12;;;;;;;24.77;22.23;;;4.10;99.90;;;;;;5043479;28;20049;-72
2021/10/10 04:52:38;;;;;;;22.30;19.90;;;4.10;99.90;;;;;;5050798;28;20047;-72
2021/10/10 04:55:05;;;;;;;16.60;14.80;;;4.10;99.90;;;;;;5039196;28;20514;-72
2021/10/10 04:57:31;;;;;;;13.00;11.70;;;4.10;99.90;;;;;;5031334;28;20049;-72
2021/10/10 04:59:57;;;;;;;16.83;15.07;;;4.00;99.90;;;;;;5047844;28;20044;-72
2021/10/10 05:02:23;;;;;;;20.27;18.17;;;4.00;99.90;;;;;;5014930;28;20136;-72
2021/10/10 05:04:50;;;;;;;19.27;17.27;;;4.00;99.90;;;;;;5030428;28;20041;-72
2021/10/10 05:07:17;;;;;;;19.40;17.50;;;3.90;99.90;;;;;;5018282;28;20549;-72
2021/10/10 05:09:43;;;;;;;22.77;19.63;;;3.90;99.90;;;;;;5050200;28;20687;-72
2021/10/10 05:12:09;;;;;;;20.93;18.83;;;3.90;99.90;;;;;;5050977;28;20048;-72
2021/10/10 05:14:35;;;;;;;35.07;30.20;;;3.90;99.90;;;;;;5050640;28;20040;-72
2021/10/10 05:17:01;;;;;;;36.13;30.90;;;3.90;99.90;;;;;;5051160;28;20139;-72
2021/10/10 05:19:26;;;;;;;27.57;24.77;;;3.90;99.90;;;;;;5049894;28;20044;-72
2021/10/10 05:21:52;;;;;;;25.33;22.83;;;3.90;99.90;;;;;;5050834;28;20048;-72
2021/10/10 05:24:18;;;;;;;28.97;26.00;;;3.90;99.90;;;;;;5029201;28;20076;-72
2021/10/10 05:26:44;;;;;;;35.10;31.40;;;4.00;99.90;;;;;;5050072;28;20372;-72
2021/10/10 05:29:09;;;;;;;49.50;39.13;;;3.90;99.90;;;;;;5033972;28;20040;-72
2021/10/10 05:31:35;;;;;;;58.30;47.73;;;4.00;99.90;;;;;;5049932;28;20040;-72
2021/10/10 05:34:01;;;;;;;36.07;32.20;;;4.00;99.90;;;;;;5033756;28;20496;-72
2021/10/10 05:36:27;;;;;;;46.30;40.80;;;4.00;99.90;;;;;;5050283;28;20045;-72
2021/10/10 05:38:53;;;;;;;46.37;41.37;;;4.00;99.90;;;;;;5049708;28;20620;-72
2021/10/10 05:41:19;;;;;;;57.07;47.53;;;4.10;99.90;;;;;;5033781;28;20094;-71
2021/10/10 05:43:45;;;;;;;35.10;31.40;;;4.10;99.90;;;;;;5033274;28;20052;-72
2021/10/10 05:46:11;;;;;;;45.47;40.53;;;4.10;99.90;;;;;;5040715;28;20048;-72
2021/10/10 05:48:37;;;;;;;46.53;41.57;;;4.10;99.90;;;;;;5038333;28;20195;-72
2021/10/10 05:51:02;;;;;;;62.50;47.57;;;4.20;99.90;;;;;;5065936;28;20565;-72
2021/10/10 05:53:28;;;;;;;48.77;41.17;;;4.10;99.90;;;;;;5050099;28;20098;-72
2021/10/10 05:55:58;;;;;;;32.80;29.40;;;4.10;99.90;;;;;;5048950;28;20048;-72
2021/10/10 05:58:26;;;;;;;34.67;31.02;;;4.10;99.90;;;;;;5033759;28;20525;-72
2021/10/10 06:00:53;;;;;;;33.23;29.73;;;4.10;99.90;;;;;;5050479;28;20052;-72
2021/10/10 06:03:18;;;;;;;31.13;27.93;;;4.10;99.90;;;;;;5067318;28;20495;-72
2021/10/10 06:05:47;;;;;;;30.57;27.53;;;4.10;99.90;;;;;;5050648;28;20097;-72
2021/10/10 06:08:13;;;;;;;33.43;30.13;;;4.10;99.90;;;;;;5050785;28;20056;-72
2021/10/10 06:10:40;;;;;;;29.67;26.60;;;4.00;99.90;;;;;;5049916;28;20044;-72
2021/10/10 06:13:09;;;;;;;28.30;25.37;;;4.10;99.90;;;;;;5033940;28;20041;-72
2021/10/10 06:15:35;;;;;;;36.78;32.95;;;4.10;99.90;;;;;;5033997;28;20041;-72
2021/10/10 06:18:02;;;;;;;31.30;28.10;;;4.10;99.90;;;;;;5051014;28;20045;-72
2021/10/10 06:20:28;;;;;;;31.80;28.53;;;4.10;99.90;;;;;;5050630;28;20048;-71
2021/10/10 06:22:53;;;;;;;37.23;33.33;;;4.10;99.90;;;;;;5050509;28;20045;-71
2021/10/10 06:25:19;;;;;;;37.37;33.33;;;4.20;99.90;;;;;;5049003;28;20494;-71
2021/10/10 06:27:45;;;;;;;36.43;32.77;;;4.20;99.90;;;;;;5066625;28;20152;-72
2021/10/10 06:30:11;;;;;;;30.97;27.77;;;4.20;99.90;;;;;;5029914;28;20072;-71
2021/10/10 06:32:38;;;;;;;35.83;32.07;;;4.20;99.90;;;;;;5017582;28;20049;-71
2021/10/10 06:35:08;;;;;;;34.50;30.80;;;4.30;99.90;;;;;;5017155;28;20053;-72
2021/10/10 06:37:34;;;;;;;35.20;31.40;;;4.40;99.90;;;;;;5033677;28;20057;-71
2021/10/10 06:40:00;;;;;;;36.83;33.10;;;4.40;99.90;;;;;;5033797;28;20052;-72
2021/10/10 06:42:27;;;;;;;38.63;33.20;;;4.50;99.90;;;;;;5052180;28;20059;-71
2021/10/10 06:44:52;;;;;;;37.10;33.30;;;4.50;99.90;;;;;;5053033;28;20563;-71
2021/10/10 06:47:18;;;;;;;42.87;38.33;;;4.50;99.90;;;;;;5052553;28;20055;-72
2021/10/10 06:49:44;;;;;;;48.03;42.07;;;4.70;99.90;;;;;;5053435;28;20036;-71
2021/10/10 06:52:09;;;;;;;42.83;38.40;;;4.80;99.90;;;;;;5053139;28;20032;-71
2021/10/10 06:54:35;;;;;;;43.67;38.83;;;4.90;99.90;;;;;;5052325;28;20048;-71
2021/10/10 06:57:04;;;;;;;46.83;41.40;;;5.10;99.90;;;;;;5026041;28;20135;-71
2021/10/10 06:59:30;;;;;;;42.17;37.67;;;5.20;99.90;;;;;;5055294;28;20097;-71
2021/10/10 07:01:56;;;;;;;54.83;48.43;;;5.30;99.90;;;;;;5051611;28;20127;-71
2021/10/10 07:04:21;;;;;;;43.53;39.23;;;5.40;99.90;;;;;;5036702;28;20052;-71
2021/10/10 07:06:47;;;;;;;47.93;42.97;;;5.50;99.90;;;;;;5051839;28;20036;-71
2021/10/10 07:09:13;;;;;;;43.47;38.90;;;5.60;99.90;;;;;;5053339;28;20044;-71
2021/10/10 07:11:39;;;;;;;43.70;39.30;;;5.70;99.90;;;;;;5052623;28;20129;-71
2021/10/10 07:14:05;;;;;;;44.53;39.75;;;5.80;99.90;;;;;;5036594;28;20059;-71
2021/10/10 07:16:33;;;;;;;48.67;43.10;;;5.90;99.90;;;;;;5036567;28;20075;-71
2021/10/10 07:19:00;;;;;;;41.43;35.33;;;6.00;99.90;;;;;;5049878;28;20049;-71
2021/10/10 07:21:39;;;;;;;40.55;36.15;;;6.00;99.90;;;;;;5016031;28;20055;-71
2021/10/10 07:26:33;;;;;;;43.23;38.60;;;6.20;99.90;;;;;;5052366;28;20136;-71
2021/10/10 07:28:59;;;;;;;40.00;35.75;;;6.30;99.90;;;;;;5052842;28;20123;-71
2021/10/10 07:31:25;;;;;;;41.13;37.08;;;6.30;99.90;;;;;;5036189;28;20103;-71
2021/10/10 07:33:51;;;;;;;40.13;34.83;;;6.40;99.90;;;;;;5052735;28;20041;-71
2021/10/10 07:36:17;;;;;;;42.85;37.63;;;6.40;99.90;;;;;;5052364;28;20561;-71
2021/10/10 07:38:43;;;;;;;38.63;34.40;;;6.40;99.90;;;;;;5021524;28;20120;-71
2021/10/10 07:41:09;;;;;;;41.92;37.40;;;6.40;99.90;;;;;;5049320;28;20119;-72
2021/10/10 07:43:35;;;;;;;44.55;40.00;;;6.50;99.90;;;;;;5031645;28;20094;-71
2021/10/10 07:46:09;;;;;;;42.75;38.35;;;6.50;99.90;;;;;;5012460;28;20056;-71
2021/10/10 07:48:37;;;;;;;42.83;38.60;;;6.60;99.90;;;;;;5047825;28;20503;-71
2021/10/10 07:51:04;;;;;;;40.63;36.42;;;6.80;99.90;;;;;;5032267;28;20049;-71
2021/10/10 07:53:30;;;;;;;38.80;34.85;;;6.80;99.90;;;;;;5035830;28;20041;-72
2021/10/10 07:55:56;;;;;;;38.17;33.92;;;7.00;99.90;;;;;;5046601;28;20047;-71
2021/10/10 07:58:22;;;;;;;38.90;34.65;;;7.10;99.90;;;;;;5032545;28;20166;-71
2021/10/10 08:00:48;;;;;;;37.80;32.17;;;7.30;99.90;;;;;;5048696;28;20040;-71
2021/10/10 08:03:14;;;;;;;37.20;33.33;;;7.60;99.90;;;;;;5049653;28;20088;-71
2021/10/10 08:05:45;;;;;;;38.58;34.75;;;7.70;99.90;;;;;;5048390;28;20087;-74
2021/10/10 08:08:11;;;;;;;39.70;35.70;;;7.90;99.90;;;;;;5049388;28;20052;-75
2021/10/10 08:10:38;;;;;;;36.70;32.95;;;7.90;99.90;;;;;;5048423;28;20084;-75
2021/10/10 08:13:04;;;;;;;36.45;32.70;;;8.00;99.90;;;;;;5032873;28;20049;-75
2021/10/10 08:15:30;;;;;;;36.05;32.35;;;8.10;99.90;;;;;;5049318;28;20048;-71
2021/10/10 08:17:55;;;;;;;38.63;34.42;;;8.20;99.90;;;;;;5032823;28;20114;-71
2021/10/10 08:20:21;;;;;;;39.05;34.92;;;8.40;99.90;;;;;;5049159;28;20052;-71
2021/10/10 08:22:48;;;;;;;39.83;35.75;;;8.40;99.90;;;;;;5015750;28;20037;-71
2021/10/10 08:25:15;;;;;;;40.38;36.25;;;8.60;99.90;;;;;;5035970;28;20107;-71
2021/10/10 08:27:43;;;;;;;36.17;32.42;;;8.60;99.90;;;;;;5036686;28;20531;-71
2021/10/10 08:30:14;;;;;;;40.75;36.58;;;8.70;99.90;;;;;;5029149;28;20084;-71
2021/10/10 08:32:41;;;;;;;42.45;38.05;;;8.80;99.90;;;;;;5045666;28;20041;-72
2021/10/10 08:35:08;;;;;;;44.05;39.38;;;8.90;99.90;;;;;;5045644;28;20102;-72
2021/10/10 08:37:34;;;;;;;42.47;38.10;;;9.00;99.90;;;;;;5028447;28;20048;-72
2021/10/10 08:40:03;;;;;;;42.08;37.78;;;9.10;99.90;;;;;;5029032;28;20052;-72
2021/10/10 08:42:35;;;;;;;37.30;33.30;;;9.20;99.90;;;;;;5011983;28;20467;-72
2021/10/10 08:45:08;;;;;;;37.85;33.28;;;9.40;99.90;;;;;;5044436;28;20219;-72
2021/10/10 08:47:42;;;;;;;39.00;34.00;;;9.50;99.90;;;;;;5046358;28;20114;-72
2021/10/10 08:50:19;;;;;;;36.60;32.78;;;9.60;99.90;;;;;;5031249;28;20073;-72
2021/10/10 08:52:47;;;;;;;42.70;38.08;;;9.80;99.90;;;;;;5031148;28;20052;-72
2021/10/10 08:55:13;;;;;;;38.25;34.15;;;9.90;99.90;;;;;;5018418;28;20064;-72
2021/10/10 08:57:40;;;;;;;39.53;35.20;;;9.90;99.90;;;;;;5027162;28;20414;-71
2021/10/10 09:01:01;;;;;;;41.75;37.25;;;9.90;99.90;;;;;;5044821;28;20049;-72
2021/10/10 09:02:56;;;;;;;47.30;38.35;;;9.80;99.90;;;;;;5009895;28;20204;-75
2021/10/10 09:05:24;;;;;;;36.30;32.35;;;9.80;99.90;;;;;;4995191;28;20084;-76
2021/10/10 09:07:50;;;;;;;35.13;31.50;;;9.80;99.90;;;;;;5028632;28;20041;-76
2021/10/10 09:10:27;;;;;;;39.75;35.10;;;9.90;99.90;;;;;;5047811;28;20048;-76
2021/10/10 09:13:08;;;;;;;40.20;33.97;;;9.90;99.90;;;;;;5014360;28;20052;-72
2021/10/10 09:15:36;;;;;;;33.13;29.77;;;10.00;99.90;;;;;;5047271;28;20487;-72
2021/10/10 09:18:04;;;;;;;35.55;31.55;;;10.00;99.90;;;;;;5031038;28;20048;-72
2021/10/10 09:20:39;;;;;;;44.83;35.83;;;10.00;99.90;;;;;;5047378;28;20454;-72
2021/10/10 09:23:09;;;;;;;45.17;38.55;;;10.00;99.90;;;;;;5047362;28;20098;-72
2021/10/10 09:25:35;;;;;;;42.47;37.42;;;10.00;99.90;;;;;;5014491;28;20056;-76
2021/10/10 09:28:19;;;;;;;42.83;37.35;;;10.10;99.90;;;;;;5041566;28;20117;-76
2021/10/10 09:30:54;;;;;;;37.13;33.08;;;10.10;99.90;;;;;;5047066;28;20052;-72
2021/10/10 09:33:37;;;;;;;39.78;35.45;;;10.10;99.90;;;;;;5046719;28;20106;-71
2021/10/10 09:36:05;;;;;;;42.58;37.40;;;10.10;99.90;;;;;;5030797;28;20052;-72
2021/10/10 09:38:41;;;;;;;42.83;38.38;;;10.10;99.90;;;;;;5047200;28;20057;-72
2021/10/10 09:41:23;;;;;;;43.83;39.47;;;10.10;99.90;;;;;;5030575;28;20584;-72
2021/10/10 09:46:47;;;;;;;42.97;38.55;;;10.10;99.90;;;;;;5062181;28;20072;-71
2021/10/10 09:49:20;;;;;;;40.28;35.83;;;10.20;99.90;;;;;;5046932;28;20124;-72
2021/10/10 09:51:46;;;;;;;45.78;40.58;;;10.30;99.90;;;;;;5045621;28;20100;-72
2021/10/10 09:54:12;;;;;;;41.92;37.78;;;10.40;99.90;;;;;;5011751;28;20061;-71
2021/10/10 09:56:39;;;;;;;43.97;39.30;;;10.50;99.90;;;;;;5026920;28;20051;-71
2021/10/10 09:59:04;;;;;;;42.80;35.83;;;10.60;99.90;;;;;;5044814;28;20045;-72
2021/10/10 10:01:38;;;;;;;46.47;39.95;;;10.70;99.90;;;;;;5011889;28;20041;-72
2021/10/10 10:04:06;;;;;;;42.67;38.13;;;10.90;99.90;;;;;;5042591;28;20075;-72
2021/10/10 10:06:34;;;;;;;48.50;43.38;;;11.00;99.90;;;;;;5044765;28;20055;-72
2021/10/10 10:09:05;;;;;;;48.17;41.17;;;11.00;99.90;;;;;;5045576;28;20049;-72
2021/10/10 10:11:36;;;;;;;43.05;36.55;;;11.20;99.90;;;;;;5045266;28;20033;-71
2021/10/10 10:14:08;;;;;;;37.17;33.13;;;11.30;99.90;;;;;;5045071;28;20163;-72
2021/10/10 10:16:39;;;;;;;39.75;35.25;;;11.30;99.90;;;;;;5045242;28;20114;-72
2021/10/10 10:19:08;;;;;;;41.25;35.58;;;11.40;99.90;;;;;;5061337;28;20124;-72
2021/10/10 10:21:34;;;;;;;41.13;34.43;;;11.50;99.90;;;;;;5045247;28;20565;-71
2021/10/10 10:24:02;;;;;;;40.90;36.30;;;11.50;99.90;;;;;;5045015;28;20055;-71
2021/10/10 10:26:34;;;;;;;40.85;34.45;;;11.70;99.90;;;;;;5011592;28;20049;-71
2021/10/10 10:29:25;;;;;;;41.28;33.78;;;11.70;99.90;;;;;;5028755;28;20044;-72
2021/10/10 10:31:56;;;;;;;37.60;33.28;;;11.90;99.90;;;;;;5026157;28;20037;-71
2021/10/10 10:34:26;;;;;;;38.20;32.10;;;11.90;99.90;;;;;;5029250;28;20045;-71
2021/10/10 10:36:57;;;;;;;;;;;12.00;99.90;;;;;;5046242;28;20114;-71
2021/10/10 10:39:41;;;;;;;34.65;30.25;;;12.10;99.90;;;;;;5045906;28;19932;-71
2021/10/10 10:42:31;;;;;;;38.63;34.42;;;12.20;99.90;;;;;;5044858;28;20053;-71
2021/10/10 10:44:57;;;;;;;33.08;29.33;;;12.20;99.90;;;;;;5026683;28;20041;-71
2021/10/10 10:47:36;;;;;;;35.53;31.75;;;12.40;99.90;;;;;;5026487;28;20077;-71
2021/10/10 10:50:05;;;;;;;38.45;33.08;;;12.50;99.90;;;;;;5045370;28;20060;-71
2021/10/10 10:52:33;;;;;;;35.38;31.33;;;12.50;99.90;;;;;;5027807;28;20100;-71
2021/10/10 10:55:23;;;;;;;38.95;33.40;;;12.60;99.90;;;;;;5044772;28;20049;-71
2021/10/10 10:58:16;;;;;;;44.45;36.13;;;12.70;99.90;;;;;;5025072;28;20041;-71
2021/10/10 11:00:50;;;;;;;36.88;32.20;;;12.80;99.90;;;;;;5027969;28;20399;-71
2021/10/10 11:03:22;;;;;;;39.70;35.38;;;12.90;99.90;;;;;;5061764;28;20135;-71
2021/10/10 11:05:52;;;;;;;35.97;31.70;;;13.00;99.90;;;;;;5044543;28;20037;-71
2021/10/10 11:08:17;;;;;;;37.03;32.95;;;13.00;99.90;;;;;;5026954;28;20483;-71
2021/10/10 11:11:15;;;;;;;36.58;30.92;;;13.10;99.90;;;;;;5028046;28;20048;-71
2021/10/10 11:13:45;;;;;;;41.55;34.97;;;13.10;99.90;;;;;;5027953;28;20060;-71
2021/10/10 11:16:20;;;;;;;37.40;31.58;;;13.20;99.90;;;;;;5044819;28;20044;-71
2021/10/10 11:18:49;;;;;;;39.45;32.80;;;13.40;99.90;;;;;;5061645;28;20446;-71
2021/10/10 11:21:18;;;;;;;37.20;31.92;;;13.50;99.90;;;;;;5048802;28;20090;-71
2021/10/10 11:23:48;;;;;;;37.22;32.53;;;13.60;99.90;;;;;;5044428;28;20197;-71
2021/10/10 11:26:13;;;;;;;39.47;33.53;;;13.70;99.90;;;;;;5049118;28;20052;-70
2021/10/10 11:28:54;;;;;;;37.45;32.35;;;13.80;99.90;;;;;;5014119;28;20552;-71
2021/10/10 11:31:32;;;;;;;44.80;35.28;;;13.90;99.90;;;;;;5048130;28;20037;-71
2021/10/10 11:34:02;;;;;;;43.00;34.97;;;14.10;99.90;;;;;;5030620;28;20504;-71
2021/10/10 11:36:47;;;;;;;41.55;33.60;;;14.20;99.90;;;;;;5031092;28;20048;-71
2021/10/10 11:39:18;;;;;;;41.88;33.97;;;14.20;99.90;;;;;;5045751;28;20064;-71
2021/10/10 11:41:53;;;;;;;43.03;34.92;;;14.30;99.90;;;;;;5031205;28;20044;-71
2021/10/10 11:44:24;;;;;;;42.25;33.30;;;14.40;99.90;;;;;;5046387;28;20041;-71
2021/10/10 11:46:53;;;;;;;41.13;32.55;;;14.50;99.90;;;;;;5044030;28;20124;-71
2021/10/10 11:49:42;;;;;;;43.95;33.35;;;14.60;99.90;;;;;;5046748;28;20483;-71
2021/10/10 11:52:20;;;;;;;39.33;32.03;;;14.70;99.90;;;;;;5032020;28;20098;-71
2021/10/10 11:55:02;;;;;;;39.97;32.72;;;14.70;99.90;;;;;;5027981;28;20061;-71
2021/10/10 11:57:30;;;;;;;43.47;34.03;;;14.80;99.90;;;;;;5040150;28;20054;-71
2021/10/10 12:00:01;;;;;;;39.78;32.55;;;14.90;99.90;;;;;;5045779;28;20056;-71
2021/10/10 12:02:35;;;;;;;39.13;31.30;;;14.90;99.90;;;;;;5029629;28;20127;-70
2021/10/10 12:05:02;;;;;;;42.15;32.67;;;15.00;99.90;;;;;;5049105;28;20119;-71
2021/10/10 12:07:32;;;;;;;44.10;33.17;;;15.10;99.90;;;;;;5046561;28;20167;-71
2021/10/10 12:09:58;;;;;;;41.22;32.33;;;15.20;99.90;;;;;;5027635;28;20041;-70
2021/10/10 12:12:24;;;;;;;44.92;33.42;;;15.20;99.90;;;;;;5049569;28;20044;-69
2021/10/10 12:14:54;;;;;;;45.72;34.25;;;15.20;99.90;;;;;;5029282;28;20056;-70
2021/10/10 12:17:38;;;;;;;46.22;34.42;;;15.20;99.90;;;;;;5032071;28;20055;-69
2021/10/10 12:20:23;;;;;;;41.90;31.77;;;15.20;99.90;;;;;;5032885;28;20395;-69
2021/10/10 12:23:05;;;;;;;43.85;33.08;;;15.20;99.90;;;;;;5047002;28;20036;-70
2021/10/10 12:25:40;;;;;;;42.30;32.55;;;15.30;99.90;;;;;;5047633;28;20041;-70
2021/10/10 12:28:10;;;;;;;43.03;32.25;;;15.50;99.90;;;;;;5028993;28;20396;-70
2021/10/10 12:30:39;;;;;;;43.47;33.85;;;15.60;99.90;;;;;;5046795;28;20041;-70
2021/10/10 12:33:23;;;;;;;42.92;32.42;;;15.70;99.90;;;;;;5046931;28;20067;-70
2021/10/10 12:35:59;;;;;;;46.40;35.25;;;15.70;99.90;;;;;;5030042;28;20053;-70
2021/10/10 12:38:34;;;;;;;41.78;33.75;;;15.60;99.90;;;;;;5048935;28;20037;-70
2021/10/10 12:41:20;;;;;;;44.13;35.22;;;15.60;99.90;;;;;;5028497;28;20049;-70
2021/10/10 12:43:49;;;;;;;44.70;35.05;;;15.50;99.90;;;;;;5039025;28;20048;-70
2021/10/10 12:46:16;;;;;;;44.13;34.45;;;15.40;99.90;;;;;;5044692;28;20504;-69
2021/10/10 12:48:42;;;;;;;46.78;35.83;;;15.30;99.90;;;;;;5047215;28;20044;-70
2021/10/10 12:51:16;;;;;;;46.58;36.97;;;15.20;99.90;;;;;;5008933;28;20399;-70